<?xml version='1.0' encoding='UTF-8'?><gpx version="1.1" creator="JPX - https://github.com/jenetics/jpx" xmlns="http://www.topografix.com/GPX/1/1"><trk><trkseg><trkpt lat="40.10916801316825" lon="15.233558655814589"><ele>183.33333333333331</ele><time>2026-04-26T14:38:42Z</time></trkpt><trkpt lat="40.10907461135129" lon="15.233574140410587"><ele>184.66666666666666</ele><time>2026-04-26T14:38:44Z</time></trkpt><trkpt lat="40.10900928861102" lon="15.23357826614284"><ele>186.0</ele><time>2026-04-26T14:38:46Z</time></trkpt><trkpt lat="40.10893554894351" lon="15.233597579955797"><ele>187.33333333333334</ele><time>2026-04-26T14:38:51Z</time></trkpt><trkpt lat="40.108936027404205" lon="15.233682472648862"><ele>188.66666666666669</ele><time>2026-04-26T14:38:57Z</time></trkpt><trkpt lat="40.10892921050484" lon="15.233790218329395"><ele>190.0</ele><time>2026-04-26T14:39:31Z</time></trkpt><trkpt lat="40.108943374497784" lon="15.233923665786211"><ele>190.33333333333334</ele><time>2026-04-26T14:39:34Z</time></trkpt><trkpt lat="40.108970091233374" lon="15.234030948588943"><ele>190.66666666666669</ele><time>2026-04-26T14:39:36Z</time></trkpt><trkpt lat="40.10901561468625" lon="15.2341128505703"><ele>191.0</ele><time>2026-04-26T14:39:38Z</time></trkpt><trkpt lat="40.109065117027626" lon="15.234186298919903"><ele>191.33333333333334</ele><time>2026-04-26T14:39:40Z</time></trkpt><trkpt lat="40.10908946814124" lon="15.2343326973972"><ele>191.66666666666666</ele><time>2026-04-26T14:39:42Z</time></trkpt><trkpt lat="40.10909425719999" lon="15.234418258214106"><ele>192.0</ele><time>2026-04-26T14:39:43Z</time></trkpt><trkpt lat="40.109083788580264" lon="15.234509191989527"><ele>192.0</ele><time>2026-04-26T14:39:44Z</time></trkpt><trkpt lat="40.10914883403279" lon="15.234644493952478"><ele>192.0</ele><time>2026-04-26T14:39:46Z</time></trkpt><trkpt lat="40.10922230006451" lon="15.234781782602544"><ele>192.0</ele><time>2026-04-26T14:39:48Z</time></trkpt><trkpt lat="40.10924012982921" lon="15.234861978355443"><ele>192.0</ele><time>2026-04-26T14:39:49Z</time></trkpt><trkpt lat="40.109237858903626" lon="15.235006786629345"><ele>192.0</ele><time>2026-04-26T14:39:51Z</time></trkpt><trkpt lat="40.10918329884503" lon="15.235125519687347"><ele>190.6</ele><time>2026-04-26T14:39:53Z</time></trkpt><trkpt lat="40.10908749672062" lon="15.235214813784653"><ele>189.2</ele><time>2026-04-26T14:39:55Z</time></trkpt><trkpt lat="40.10898766391217" lon="15.235311262551942"><ele>187.8</ele><time>2026-04-26T14:39:57Z</time></trkpt><trkpt lat="40.10893637167355" lon="15.235389542416243"><ele>186.4</ele><time>2026-04-26T14:39:58Z</time></trkpt><trkpt lat="40.108898266881766" lon="15.235461514608652"><ele>185.0</ele><time>2026-04-26T14:39:59Z</time></trkpt><trkpt lat="40.108872063481286" lon="15.23554689077759"><ele>181.0</ele><time>2026-04-26T14:40:00Z</time></trkpt><trkpt lat="40.10884932990204" lon="15.23565675737292"><ele>177.0</ele><time>2026-04-26T14:40:01Z</time></trkpt><trkpt lat="40.10882737904172" lon="15.23573738148368"><ele>173.0</ele><time>2026-04-26T14:40:02Z</time></trkpt><trkpt lat="40.108775163541516" lon="15.235866117138206"><ele>169.0</ele><time>2026-04-26T14:40:04Z</time></trkpt><trkpt lat="40.108700939865486" lon="15.235985261280875"><ele>165.0</ele><time>2026-04-26T14:40:06Z</time></trkpt><trkpt lat="40.10862566923015" lon="15.23605214459867"><ele>165.0</ele><time>2026-04-26T14:40:08Z</time></trkpt><trkpt lat="40.10852533271691" lon="15.23616745720388"><ele>165.0</ele><time>2026-04-26T14:40:10Z</time></trkpt><trkpt lat="40.108472964070266" lon="15.236233110277977"><ele>165.0</ele><time>2026-04-26T14:40:11Z</time></trkpt><trkpt lat="40.108413137588904" lon="15.236311187513463"><ele>165.0</ele><time>2026-04-26T14:40:12Z</time></trkpt><trkpt lat="40.10835488156605" lon="15.236395844203479"><ele>165.0</ele><time>2026-04-26T14:40:13Z</time></trkpt><trkpt lat="40.10829500203366" lon="15.236483464283507"><ele>159.0</ele><time>2026-04-26T14:40:14Z</time></trkpt><trkpt lat="40.10822274845906" lon="15.236585372513549"><ele>153.0</ele><time>2026-04-26T14:40:15Z</time></trkpt><trkpt lat="40.1081496389596" lon="15.236687900805379"><ele>147.0</ele><time>2026-04-26T14:40:16Z</time></trkpt><trkpt lat="40.108095324229446" lon="15.236793421440165"><ele>141.0</ele><time>2026-04-26T14:40:17Z</time></trkpt><trkpt lat="40.10803535577929" lon="15.236865790739698"><ele>135.0</ele><time>2026-04-26T14:40:18Z</time></trkpt><trkpt lat="40.108014180339865" lon="15.236961559911206"><ele>135.0</ele><time>2026-04-26T14:40:19Z</time></trkpt><trkpt lat="40.10801900642895" lon="15.2370613762549"><ele>135.0</ele><time>2026-04-26T14:40:20Z</time></trkpt><trkpt lat="40.10803580952197" lon="15.237154906879969"><ele>135.0</ele><time>2026-04-26T14:40:21Z</time></trkpt><trkpt lat="40.108051996813316" lon="15.237246484427429"><ele>135.0</ele><time>2026-04-26T14:40:22Z</time></trkpt><trkpt lat="40.10804963801023" lon="15.237330636012482"><ele>135.0</ele><time>2026-04-26T14:40:23Z</time></trkpt><trkpt lat="40.108058826435695" lon="15.237413367313021"><ele>135.0</ele><time>2026-04-26T14:40:24Z</time></trkpt><trkpt lat="40.10799297427622" lon="15.237474129207497"><ele>135.0</ele><time>2026-04-26T14:40:25Z</time></trkpt><trkpt lat="40.10791955694967" lon="15.23750394811666"><ele>140.0</ele><time>2026-04-26T14:40:26Z</time></trkpt><trkpt lat="40.1078519635914" lon="15.237554254397315"><ele>145.0</ele><time>2026-04-26T14:40:27Z</time></trkpt><trkpt lat="40.10778723323597" lon="15.23760242626681"><ele>150.0</ele><time>2026-04-26T14:40:28Z</time></trkpt><trkpt lat="40.10771890151042" lon="15.237653740711705"><ele>155.0</ele><time>2026-04-26T14:40:29Z</time></trkpt><trkpt lat="40.107655947668384" lon="15.237720085469666"><ele>160.0</ele><time>2026-04-26T14:40:30Z</time></trkpt><trkpt lat="40.107572650066075" lon="15.237739683105664"><ele>165.0</ele><time>2026-04-26T14:40:31Z</time></trkpt><trkpt lat="40.10748491028581" lon="15.237663799284181"><ele>166.4</ele><time>2026-04-26T14:40:32Z</time></trkpt><trkpt lat="40.10738501614273" lon="15.237610657430965"><ele>167.8</ele><time>2026-04-26T14:40:33Z</time></trkpt><trkpt lat="40.10727473175498" lon="15.237551248132839"><ele>169.2</ele><time>2026-04-26T14:40:34Z</time></trkpt><trkpt lat="40.10718091961615" lon="15.23750070714968"><ele>170.6</ele><time>2026-04-26T14:40:35Z</time></trkpt><trkpt lat="40.107083116272776" lon="15.23744706598505"><ele>172.0</ele><time>2026-04-26T14:40:36Z</time></trkpt><trkpt lat="40.10697622135802" lon="15.237389357061232"><ele>172.0</ele><time>2026-04-26T14:40:37Z</time></trkpt><trkpt lat="40.10684899166072" lon="15.23734541092869"><ele>172.0</ele><time>2026-04-26T14:40:38Z</time></trkpt><trkpt lat="40.106736666961666" lon="15.237277544412999"><ele>172.0</ele><time>2026-04-26T14:40:39Z</time></trkpt><trkpt lat="40.10662686142313" lon="15.237224365811414"><ele>172.0</ele><time>2026-04-26T14:40:40Z</time></trkpt><trkpt lat="40.10653504257641" lon="15.237178588084925"><ele>169.0</ele><time>2026-04-26T14:40:41Z</time></trkpt><trkpt lat="40.10644684516631" lon="15.237131555113526"><ele>166.0</ele><time>2026-04-26T14:40:42Z</time></trkpt><trkpt lat="40.106359532868886" lon="15.237083836942624"><ele>163.0</ele><time>2026-04-26T14:40:43Z</time></trkpt><trkpt lat="40.106274482538275" lon="15.237031255870978"><ele>160.0</ele><time>2026-04-26T14:40:44Z</time></trkpt><trkpt lat="40.106192839702196" lon="15.236979171782679"><ele>157.0</ele><time>2026-04-26T14:40:45Z</time></trkpt><trkpt lat="40.106115982298746" lon="15.236924517818817"><ele>157.0</ele><time>2026-04-26T14:40:46Z</time></trkpt><trkpt lat="40.10605528732051" lon="15.236848179503868"><ele>157.0</ele><time>2026-04-26T14:40:47Z</time></trkpt><trkpt lat="40.105967473659874" lon="15.236806064989674"><ele>157.0</ele><time>2026-04-26T14:40:48Z</time></trkpt><trkpt lat="40.10588495619483" lon="15.236740413358227"><ele>157.0</ele><time>2026-04-26T14:40:49Z</time></trkpt><trkpt lat="40.10580376243988" lon="15.236674922423369"><ele>157.0</ele><time>2026-04-26T14:40:50Z</time></trkpt><trkpt lat="40.10572984729968" lon="15.236609178070992"><ele>155.6</ele><time>2026-04-26T14:40:51Z</time></trkpt><trkpt lat="40.10565334063282" lon="15.236548448863859"><ele>154.2</ele><time>2026-04-26T14:40:52Z</time></trkpt><trkpt lat="40.10557606790217" lon="15.236485526507874"><ele>152.8</ele><time>2026-04-26T14:40:53Z</time></trkpt><trkpt lat="40.10551443031246" lon="15.236386632101691"><ele>151.4</ele><time>2026-04-26T14:40:54Z</time></trkpt><trkpt lat="40.10544513690687" lon="15.236321922070973"><ele>150.0</ele><time>2026-04-26T14:40:55Z</time></trkpt><trkpt lat="40.105375499421456" lon="15.236253888824498"><ele>150.0</ele><time>2026-04-26T14:40:56Z</time></trkpt><trkpt lat="40.10529471238662" lon="15.236197655071843"><ele>150.0</ele><time>2026-04-26T14:40:57Z</time></trkpt><trkpt lat="40.10523070496379" lon="15.236114278263681"><ele>150.0</ele><time>2026-04-26T14:40:58Z</time></trkpt><trkpt lat="40.105148419273114" lon="15.236047460965288"><ele>150.0</ele><time>2026-04-26T14:40:59Z</time></trkpt><trkpt lat="40.10507665737061" lon="15.235983602428634"><ele>150.0</ele><time>2026-04-26T14:41:00Z</time></trkpt><trkpt lat="40.104997497981046" lon="15.235939166257197"><ele>150.0</ele><time>2026-04-26T14:41:01Z</time></trkpt><trkpt lat="40.10491544278475" lon="15.235919912000012"><ele>150.0</ele><time>2026-04-26T14:41:02Z</time></trkpt><trkpt lat="40.10482795719226" lon="15.235905683783027"><ele>150.0</ele><time>2026-04-26T14:41:03Z</time></trkpt><trkpt lat="40.10474126297944" lon="15.235894301013829"><ele>150.0</ele><time>2026-04-26T14:41:04Z</time></trkpt><trkpt lat="40.10465493991503" lon="15.235874566128981"><ele>150.0</ele><time>2026-04-26T14:41:05Z</time></trkpt><trkpt lat="40.10456279829101" lon="15.235859711899101"><ele>150.0</ele><time>2026-04-26T14:41:06Z</time></trkpt><trkpt lat="40.10446601580436" lon="15.235836500888405"><ele>152.0</ele><time>2026-04-26T14:41:07Z</time></trkpt><trkpt lat="40.10436003367655" lon="15.23581921391691"><ele>154.0</ele><time>2026-04-26T14:41:08Z</time></trkpt><trkpt lat="40.10425954508467" lon="15.23578466785639"><ele>156.0</ele><time>2026-04-26T14:41:09Z</time></trkpt><trkpt lat="40.104172164749436" lon="15.235741901720417"><ele>158.0</ele><time>2026-04-26T14:41:10Z</time></trkpt><trkpt lat="40.10409956263315" lon="15.235673641468914"><ele>160.0</ele><time>2026-04-26T14:41:11Z</time></trkpt><trkpt lat="40.10404505116628" lon="15.235601207782718"><ele>156.71428571428572</ele><time>2026-04-26T14:41:12Z</time></trkpt><trkpt lat="40.10400502333977" lon="15.235517788094068"><ele>153.42857142857144</ele><time>2026-04-26T14:41:13Z</time></trkpt><trkpt lat="40.103964662883676" lon="15.235440927706506"><ele>150.14285714285717</ele><time>2026-04-26T14:41:14Z</time></trkpt><trkpt lat="40.103933937028" lon="15.235359667127268"><ele>146.85714285714286</ele><time>2026-04-26T14:41:15Z</time></trkpt><trkpt lat="40.10388921263341" lon="15.235288815321685"><ele>143.57142857142858</ele><time>2026-04-26T14:41:16Z</time></trkpt><trkpt lat="40.10383207821063" lon="15.23522874401369"><ele>140.2857142857143</ele><time>2026-04-26T14:41:17Z</time></trkpt><trkpt lat="40.103773684139995" lon="15.235187971545978"><ele>137.0</ele><time>2026-04-26T14:41:18Z</time></trkpt><trkpt lat="40.103651662065424" lon="15.235165670170396"><ele>137.0</ele><time>2026-04-26T14:41:20Z</time></trkpt><trkpt lat="40.10355497010454" lon="15.235252287696039"><ele>137.0</ele><time>2026-04-26T14:41:22Z</time></trkpt><trkpt lat="40.1035223561566" lon="15.235337060890936"><ele>137.0</ele><time>2026-04-26T14:41:23Z</time></trkpt><trkpt lat="40.10348864995661" lon="15.235433350090105"><ele>137.0</ele><time>2026-04-26T14:41:24Z</time></trkpt><trkpt lat="40.10343689317707" lon="15.235542051982215"><ele>137.0</ele><time>2026-04-26T14:41:25Z</time></trkpt><trkpt lat="40.103361442889735" lon="15.23562838501192"><ele>135.75</ele><time>2026-04-26T14:41:26Z</time></trkpt><trkpt lat="40.10326892894469" lon="15.235703697649205"><ele>134.5</ele><time>2026-04-26T14:41:27Z</time></trkpt><trkpt lat="40.103169666585586" lon="15.23576691407191"><ele>133.25</ele><time>2026-04-26T14:41:28Z</time></trkpt><trkpt lat="40.1030679644279" lon="15.2358452907263"><ele>132.0</ele><time>2026-04-26T14:41:29Z</time></trkpt><trkpt lat="40.10296426784358" lon="15.235940676023862"><ele>132.0</ele><time>2026-04-26T14:41:30Z</time></trkpt><trkpt lat="40.10287214646974" lon="15.236033049121781"><ele>132.0</ele><time>2026-04-26T14:41:31Z</time></trkpt><trkpt lat="40.10276997984405" lon="15.236107708096164"><ele>132.0</ele><time>2026-04-26T14:41:32Z</time></trkpt><trkpt lat="40.10267728896196" lon="15.236192575824425"><ele>132.0</ele><time>2026-04-26T14:41:33Z</time></trkpt><trkpt lat="40.102604586527235" lon="15.236265283980623"><ele>132.0</ele><time>2026-04-26T14:41:34Z</time></trkpt><trkpt lat="40.10253678736242" lon="15.236331686220323"><ele>132.0</ele><time>2026-04-26T14:41:35Z</time></trkpt><trkpt lat="40.10247071429313" lon="15.236400977873265"><ele>132.0</ele><time>2026-04-26T14:41:36Z</time></trkpt><trkpt lat="40.10239802530021" lon="15.236457840538678"><ele>132.0</ele><time>2026-04-26T14:41:37Z</time></trkpt><trkpt lat="40.1023468636887" lon="15.23651691444172"><ele>132.0</ele><time>2026-04-26T14:41:38Z</time></trkpt><trkpt lat="40.10225137602191" lon="15.236607381836976"><ele>132.0</ele><time>2026-04-26T14:41:40Z</time></trkpt><trkpt lat="40.1021330549211" lon="15.236588310214751"><ele>130.79999999999998</ele><time>2026-04-26T14:41:42Z</time></trkpt><trkpt lat="40.10208699240816" lon="15.236529742202894"><ele>129.6</ele><time>2026-04-26T14:41:43Z</time></trkpt><trkpt lat="40.102064312315186" lon="15.236444559207449"><ele>128.39999999999998</ele><time>2026-04-26T14:41:44Z</time></trkpt><trkpt lat="40.102077493938374" lon="15.236302721770382"><ele>127.19999999999999</ele><time>2026-04-26T14:41:46Z</time></trkpt><trkpt lat="40.102190745797365" lon="15.236206227159396"><ele>126.0</ele><time>2026-04-26T14:41:48Z</time></trkpt><trkpt lat="40.10227258498808" lon="15.236200488597083"><ele>127.19999999999999</ele><time>2026-04-26T14:41:49Z</time></trkpt><trkpt lat="40.1023535785943" lon="15.236184385659058"><ele>128.39999999999998</ele><time>2026-04-26T14:41:50Z</time></trkpt><trkpt lat="40.10243512852297" lon="15.23614504819844"><ele>129.6</ele><time>2026-04-26T14:41:51Z</time></trkpt><trkpt lat="40.10252300764967" lon="15.23608245335359"><ele>130.79999999999998</ele><time>2026-04-26T14:41:52Z</time></trkpt><trkpt lat="40.102611728978005" lon="15.236015166680394"><ele>132.0</ele><time>2026-04-26T14:41:53Z</time></trkpt><trkpt lat="40.10269173951959" lon="15.235934281023145"><ele>132.0</ele><time>2026-04-26T14:41:54Z</time></trkpt><trkpt lat="40.102756813738644" lon="15.235829826661703"><ele>132.0</ele><time>2026-04-26T14:41:55Z</time></trkpt><trkpt lat="40.102815920165604" lon="15.23571450086991"><ele>132.0</ele><time>2026-04-26T14:41:56Z</time></trkpt><trkpt lat="40.10287121224809" lon="15.235610227536649"><ele>132.0</ele><time>2026-04-26T14:41:57Z</time></trkpt><trkpt lat="40.10292324138166" lon="15.23551191815628"><ele>132.0</ele><time>2026-04-26T14:41:58Z</time></trkpt><trkpt lat="40.102987347398475" lon="15.235423351482812"><ele>127.6</ele><time>2026-04-26T14:41:59Z</time></trkpt><trkpt lat="40.10305900210385" lon="15.235333337425441"><ele>123.19999999999999</ele><time>2026-04-26T14:42:00Z</time></trkpt><trkpt lat="40.10310759927688" lon="15.235233318990192"><ele>118.8</ele><time>2026-04-26T14:42:01Z</time></trkpt><trkpt lat="40.1031445213177" lon="15.235106037795545"><ele>114.4</ele><time>2026-04-26T14:42:02Z</time></trkpt><trkpt lat="40.1031673907059" lon="15.234980623434165"><ele>110.0</ele><time>2026-04-26T14:42:03Z</time></trkpt><trkpt lat="40.10317854845267" lon="15.234851191633062"><ele>107.6</ele><time>2026-04-26T14:42:04Z</time></trkpt><trkpt lat="40.10318070561576" lon="15.234728804554248"><ele>105.2</ele><time>2026-04-26T14:42:05Z</time></trkpt><trkpt lat="40.10318688411804" lon="15.234604328513576"><ele>102.80000000000001</ele><time>2026-04-26T14:42:06Z</time></trkpt><trkpt lat="40.10319130949008" lon="15.234477290669146"><ele>100.4</ele><time>2026-04-26T14:42:07Z</time></trkpt><trkpt lat="40.103196546491205" lon="15.234348304656947"><ele>98.0</ele><time>2026-04-26T14:42:08Z</time></trkpt><trkpt lat="40.10321076909727" lon="15.234228086757565"><ele>97.99999999999999</ele><time>2026-04-26T14:42:09.001Z</time></trkpt><trkpt lat="40.10323119123793" lon="15.234117164242791"><ele>98.0</ele><time>2026-04-26T14:42:10.001Z</time></trkpt><trkpt lat="40.10326429803348" lon="15.234032439536506"><ele>98.0</ele><time>2026-04-26T14:42:11.001Z</time></trkpt><trkpt lat="40.103302755465315" lon="15.233962722797315"><ele>98.0</ele><time>2026-04-26T14:42:12Z</time></trkpt><trkpt lat="40.10335576982241" lon="15.233832438771529"><ele>97.99999999999999</ele><time>2026-04-26T14:42:14Z</time></trkpt><trkpt lat="40.10329510088998" lon="15.233741748706672"><ele>98.0</ele><time>2026-04-26T14:42:16Z</time></trkpt><trkpt lat="40.10323024152889" lon="15.233730676168365"><ele>97.99999999999999</ele><time>2026-04-26T14:42:17Z</time></trkpt><trkpt lat="40.10316896205726" lon="15.233767799035414"><ele>98.0</ele><time>2026-04-26T14:42:18Z</time></trkpt><trkpt lat="40.103129076326326" lon="15.233839838962709"><ele>98.0</ele><time>2026-04-26T14:42:19Z</time></trkpt><trkpt lat="40.103110179106835" lon="15.233933128998096"><ele>98.0</ele><time>2026-04-26T14:42:20Z</time></trkpt><trkpt lat="40.103105431135624" lon="15.234038776849339"><ele>97.99999999999999</ele><time>2026-04-26T14:42:21Z</time></trkpt><trkpt lat="40.10309375630062" lon="15.23415357471501"><ele>98.0</ele><time>2026-04-26T14:42:22Z</time></trkpt><trkpt lat="40.10307859750831" lon="15.234272329292981"><ele>97.99999999999999</ele><time>2026-04-26T14:42:23Z</time></trkpt><trkpt lat="40.103063755076306" lon="15.234396295846022"><ele>98.0</ele><time>2026-04-26T14:42:24Z</time></trkpt><trkpt lat="40.10304530367446" lon="15.234528801632585"><ele>98.0</ele><time>2026-04-26T14:42:25Z</time></trkpt><trkpt lat="40.10302623346336" lon="15.234649423818242"><ele>98.0</ele><time>2026-04-26T14:42:26Z</time></trkpt><trkpt lat="40.10300956909403" lon="15.234745334599712"><ele>97.99999999999999</ele><time>2026-04-26T14:42:27Z</time></trkpt><trkpt lat="40.10299151108485" lon="15.234831613677075"><ele>98.0</ele><time>2026-04-26T14:42:28Z</time></trkpt><trkpt lat="40.102976375644914" lon="15.23497986618828"><ele>99.99999999999999</ele><time>2026-04-26T14:42:30Z</time></trkpt><trkpt lat="40.10290960465068" lon="15.23508637990302"><ele>102.0</ele><time>2026-04-26T14:42:32Z</time></trkpt><trkpt lat="40.102844242112894" lon="15.235101056250361"><ele>104.0</ele><time>2026-04-26T14:42:33Z</time></trkpt><trkpt lat="40.102769636878904" lon="15.235148241467352"><ele>106.0</ele><time>2026-04-26T14:42:34Z</time></trkpt><trkpt lat="40.1026896447358" lon="15.23516832948558"><ele>107.99999999999999</ele><time>2026-04-26T14:42:35Z</time></trkpt><trkpt lat="40.10260543680274" lon="15.235196533875005"><ele>110.0</ele><time>2026-04-26T14:42:36Z</time></trkpt><trkpt lat="40.10251592390438" lon="15.235230728327112"><ele>110.0</ele><time>2026-04-26T14:42:37Z</time></trkpt><trkpt lat="40.10241507025514" lon="15.235257752280965"><ele>110.0</ele><time>2026-04-26T14:42:38Z</time></trkpt><trkpt lat="40.10230820645025" lon="15.235297558853667"><ele>110.0</ele><time>2026-04-26T14:42:39Z</time></trkpt><trkpt lat="40.10220147446643" lon="15.235337258233258"><ele>110.0</ele><time>2026-04-26T14:42:40Z</time></trkpt><trkpt lat="40.10209897276863" lon="15.235371792151666"><ele>110.0</ele><time>2026-04-26T14:42:41Z</time></trkpt><trkpt lat="40.1019999287585" lon="15.235405091875066"><ele>109.6</ele><time>2026-04-26T14:42:42Z</time></trkpt><trkpt lat="40.10190840768648" lon="15.235458877334338"><ele>109.2</ele><time>2026-04-26T14:42:43Z</time></trkpt><trkpt lat="40.1018260011313" lon="15.235533811453783"><ele>108.80000000000001</ele><time>2026-04-26T14:42:44Z</time></trkpt><trkpt lat="40.101756124753614" lon="15.235633790309736"><ele>108.4</ele><time>2026-04-26T14:42:45Z</time></trkpt><trkpt lat="40.10169752342577" lon="15.23572326461812"><ele>108.0</ele><time>2026-04-26T14:42:46Z</time></trkpt><trkpt lat="40.10164863481153" lon="15.235796763395468"><ele>108.0</ele><time>2026-04-26T14:42:47Z</time></trkpt><trkpt lat="40.10160388417649" lon="15.235856921544821"><ele>108.0</ele><time>2026-04-26T14:42:48Z</time></trkpt><trkpt lat="40.10154558788889" lon="15.235942350603386"><ele>108.0</ele><time>2026-04-26T14:42:50Z</time></trkpt><trkpt lat="40.10147396528541" lon="15.23597942614372"><ele>108.0</ele><time>2026-04-26T14:42:52Z</time></trkpt><trkpt lat="40.10140097557936" lon="15.235942462960471"><ele>108.0</ele><time>2026-04-26T14:42:54Z</time></trkpt><trkpt lat="40.101426015996495" lon="15.23578576130927"><ele>108.0</ele><time>2026-04-26T14:42:56Z</time></trkpt><trkpt lat="40.10148552546939" lon="15.235744827874626"><ele>104.2</ele><time>2026-04-26T14:42:57Z</time></trkpt><trkpt lat="40.1015197964381" lon="15.235660559548363"><ele>100.4</ele><time>2026-04-26T14:42:58Z</time></trkpt><trkpt lat="40.101589507903945" lon="15.235578897718433"><ele>96.60000000000001</ele><time>2026-04-26T14:42:59Z</time></trkpt><trkpt lat="40.10167061406819" lon="15.23547931363844"><ele>92.80000000000001</ele><time>2026-04-26T14:43:00Z</time></trkpt><trkpt lat="40.10175107882034" lon="15.235382058704165"><ele>89.0</ele><time>2026-04-26T14:43:01Z</time></trkpt><trkpt lat="40.10183100847971" lon="15.23529135656729"><ele>89.0</ele><time>2026-04-26T14:43:02Z</time></trkpt><trkpt lat="40.10190688229053" lon="15.235205364521615"><ele>89.0</ele><time>2026-04-26T14:43:03Z</time></trkpt><trkpt lat="40.10197818792205" lon="15.235123693067369"><ele>89.0</ele><time>2026-04-26T14:43:04Z</time></trkpt><trkpt lat="40.102050012914965" lon="15.23504226061891"><ele>89.0</ele><time>2026-04-26T14:43:05Z</time></trkpt><trkpt lat="40.10211491040857" lon="15.234957947444139"><ele>89.0</ele><time>2026-04-26T14:43:06Z</time></trkpt><trkpt lat="40.10216378772186" lon="15.234859549520827"><ele>86.60000000000001</ele><time>2026-04-26T14:43:07Z</time></trkpt><trkpt lat="40.10220225956807" lon="15.234749813070183"><ele>84.2</ele><time>2026-04-26T14:43:08Z</time></trkpt><trkpt lat="40.10223464826764" lon="15.234631373431977"><ele>81.80000000000001</ele><time>2026-04-26T14:43:09Z</time></trkpt><trkpt lat="40.10226388306989" lon="15.234517453557379"><ele>79.4</ele><time>2026-04-26T14:43:10Z</time></trkpt><trkpt lat="40.10229515261728" lon="15.234404088235841"><ele>77.0</ele><time>2026-04-26T14:43:11Z</time></trkpt><trkpt lat="40.10233178064133" lon="15.234289667609385"><ele>77.0</ele><time>2026-04-26T14:43:12Z</time></trkpt><trkpt lat="40.102375358376555" lon="15.234168977409961"><ele>77.0</ele><time>2026-04-26T14:43:13Z</time></trkpt><trkpt lat="40.10242338913194" lon="15.234053514774663"><ele>77.0</ele><time>2026-04-26T14:43:14Z</time></trkpt><trkpt lat="40.1024736403568" lon="15.233945113083434"><ele>77.0</ele><time>2026-04-26T14:43:15Z</time></trkpt><trkpt lat="40.10252697494618" lon="15.233842917068463"><ele>77.0</ele><time>2026-04-26T14:43:16Z</time></trkpt><trkpt lat="40.10257672095372" lon="15.233752120312436"><ele>77.8</ele><time>2026-04-26T14:43:17Z</time></trkpt><trkpt lat="40.10263077896332" lon="15.233685616216425"><ele>78.6</ele><time>2026-04-26T14:43:18Z</time></trkpt><trkpt lat="40.10268508084911" lon="15.233638245259419"><ele>79.39999999999999</ele><time>2026-04-26T14:43:19Z</time></trkpt><trkpt lat="40.1027512905454" lon="15.233523827029401"><ele>80.2</ele><time>2026-04-26T14:43:21Z</time></trkpt><trkpt lat="40.102717952795366" lon="15.233398685944797"><ele>81.0</ele><time>2026-04-26T14:43:23Z</time></trkpt><trkpt lat="40.10260115472151" lon="15.233406541838152"><ele>81.0</ele><time>2026-04-26T14:43:25Z</time></trkpt><trkpt lat="40.10255244773587" lon="15.23348576303424"><ele>81.0</ele><time>2026-04-26T14:43:26Z</time></trkpt><trkpt lat="40.10252015933115" lon="15.233581986171659"><ele>81.0</ele><time>2026-04-26T14:43:27Z</time></trkpt><trkpt lat="40.10245885463598" lon="15.233672073213183"><ele>81.0</ele><time>2026-04-26T14:43:28Z</time></trkpt><trkpt lat="40.10240761791658" lon="15.233775205366596"><ele>81.0</ele><time>2026-04-26T14:43:29Z</time></trkpt><trkpt lat="40.102323155755556" lon="15.233865278325583"><ele>80.0</ele><time>2026-04-26T14:43:30Z</time></trkpt><trkpt lat="40.102218477032324" lon="15.233957503153233"><ele>79.0</ele><time>2026-04-26T14:43:31Z</time></trkpt><trkpt lat="40.10209443415457" lon="15.234059069729566"><ele>78.0</ele><time>2026-04-26T14:43:32Z</time></trkpt><trkpt lat="40.10198231087365" lon="15.23414918124763"><ele>77.0</ele><time>2026-04-26T14:43:33Z</time></trkpt><trkpt lat="40.101885815538864" lon="15.234255338664953"><ele>77.0</ele><time>2026-04-26T14:43:34Z</time></trkpt><trkpt lat="40.10180499541411" lon="15.234352306882869"><ele>77.0</ele><time>2026-04-26T14:43:35Z</time></trkpt><trkpt lat="40.10172900502357" lon="15.234429282016409"><ele>77.0</ele><time>2026-04-26T14:43:36Z</time></trkpt><trkpt lat="40.10167044383881" lon="15.23450117525255"><ele>77.0</ele><time>2026-04-26T14:43:37Z</time></trkpt><trkpt lat="40.101620186718" lon="15.23456629892607"><ele>77.0</ele><time>2026-04-26T14:43:38Z</time></trkpt><trkpt lat="40.10157504035049" lon="15.234625857997429"><ele>77.0</ele><time>2026-04-26T14:43:39Z</time></trkpt><trkpt lat="40.101529468520354" lon="15.234684362904126"><ele>76.0</ele><time>2026-04-26T14:43:40Z</time></trkpt><trkpt lat="40.10148075440605" lon="15.234741142781605"><ele>75.0</ele><time>2026-04-26T14:43:41Z</time></trkpt><trkpt lat="40.10137289714622" lon="15.234807459408287"><ele>74.0</ele><time>2026-04-26T14:43:43Z</time></trkpt><trkpt lat="40.10130677051571" lon="15.234686513965359"><ele>73.0</ele><time>2026-04-26T14:43:45Z</time></trkpt><trkpt lat="40.1013620434978" lon="15.23455336643927"><ele>72.0</ele><time>2026-04-26T14:43:47Z</time></trkpt><trkpt lat="40.10140359228305" lon="15.23448117427787"><ele>73.0</ele><time>2026-04-26T14:43:48Z</time></trkpt><trkpt lat="40.101451065937916" lon="15.234389623060855"><ele>74.0</ele><time>2026-04-26T14:43:49Z</time></trkpt><trkpt lat="40.10150087193086" lon="15.234287645444963"><ele>75.0</ele><time>2026-04-26T14:43:50Z</time></trkpt><trkpt lat="40.10155306378671" lon="15.234181669870837"><ele>76.0</ele><time>2026-04-26T14:43:51Z</time></trkpt><trkpt lat="40.10160888901987" lon="15.234081106249615"><ele>77.0</ele><time>2026-04-26T14:43:52Z</time></trkpt><trkpt lat="40.1016726366152" lon="15.233981052528499"><ele>73.4</ele><time>2026-04-26T14:43:53Z</time></trkpt><trkpt lat="40.101740962614656" lon="15.233887648310773"><ele>69.80000000000001</ele><time>2026-04-26T14:43:54Z</time></trkpt><trkpt lat="40.101813379850945" lon="15.233791497690545"><ele>66.2</ele><time>2026-04-26T14:43:55Z</time></trkpt><trkpt lat="40.1018883571699" lon="15.233692467223245"><ele>62.6</ele><time>2026-04-26T14:43:56Z</time></trkpt><trkpt lat="40.101966896908046" lon="15.233590234657743"><ele>59.0</ele><time>2026-04-26T14:43:57Z</time></trkpt><trkpt lat="40.102044195554335" lon="15.233488861189862"><ele>59.0</ele><time>2026-04-26T14:43:58Z</time></trkpt><trkpt lat="40.102118680728644" lon="15.233393001442083"><ele>59.00000000000001</ele><time>2026-04-26T14:43:59Z</time></trkpt><trkpt lat="40.10218525644598" lon="15.23329971673979"><ele>59.00000000000001</ele><time>2026-04-26T14:44:00Z</time></trkpt><trkpt lat="40.102239874305155" lon="15.23319659601432"><ele>59.0</ele><time>2026-04-26T14:44:01Z</time></trkpt><trkpt lat="40.10228079050825" lon="15.233089998867623"><ele>59.0</ele><time>2026-04-26T14:44:02Z</time></trkpt><trkpt lat="40.10232173024932" lon="15.232975063693575"><ele>60.0</ele><time>2026-04-26T14:44:03.001Z</time></trkpt><trkpt lat="40.10236682567265" lon="15.232853665749367"><ele>61.00000000000001</ele><time>2026-04-26T14:44:04.001Z</time></trkpt><trkpt lat="40.10241606277635" lon="15.232742074322127"><ele>62.00000000000001</ele><time>2026-04-26T14:44:05.001Z</time></trkpt><trkpt lat="40.1024723952294" lon="15.232640167056145"><ele>63.0</ele><time>2026-04-26T14:44:06.001Z</time></trkpt><trkpt lat="40.102538232706" lon="15.23254682825584"><ele>64.0</ele><time>2026-04-26T14:44:07.001Z</time></trkpt><trkpt lat="40.10261364753751" lon="15.232458316462433"><ele>63.99999999999999</ele><time>2026-04-26T14:44:08.001Z</time></trkpt><trkpt lat="40.10268523982465" lon="15.232368777337621"><ele>64.0</ele><time>2026-04-26T14:44:09.001Z</time></trkpt><trkpt lat="40.1027422303363" lon="15.232273735204489"><ele>64.0</ele><time>2026-04-26T14:44:10.001Z</time></trkpt><trkpt lat="40.10278369666729" lon="15.23217964605854"><ele>64.0</ele><time>2026-04-26T14:44:11.001Z</time></trkpt><trkpt lat="40.10281839415034" lon="15.232087084456651"><ele>63.99999999999999</ele><time>2026-04-26T14:44:12.001Z</time></trkpt><trkpt lat="40.10286636611854" lon="15.232008175369044"><ele>64.0</ele><time>2026-04-26T14:44:13.001Z</time></trkpt><trkpt lat="40.10292562026872" lon="15.23194748720142"><ele>62.666666666666664</ele><time>2026-04-26T14:44:14.001Z</time></trkpt><trkpt lat="40.102982002039376" lon="15.231900478063256"><ele>61.33333333333333</ele><time>2026-04-26T14:44:15.001Z</time></trkpt><trkpt lat="40.10303834487547" lon="15.231857909510916"><ele>60.0</ele><time>2026-04-26T14:44:16.001Z</time></trkpt><trkpt lat="40.103092100927405" lon="15.231810689205467"><ele>58.66666666666667</ele><time>2026-04-26T14:44:17.001Z</time></trkpt><trkpt lat="40.10314915881132" lon="15.231682008115106"><ele>57.333333333333336</ele><time>2026-04-26T14:44:19Z</time></trkpt><trkpt lat="40.10310684600666" lon="15.231557619846873"><ele>56.0</ele><time>2026-04-26T14:44:21Z</time></trkpt><trkpt lat="40.102985572789144" lon="15.231557771929923"><ele>56.00000000000001</ele><time>2026-04-26T14:44:23Z</time></trkpt><trkpt lat="40.10293276843481" lon="15.231608328331323"><ele>56.0</ele><time>2026-04-26T14:44:24Z</time></trkpt><trkpt lat="40.10286176967348" lon="15.23172205804838"><ele>56.0</ele><time>2026-04-26T14:44:26Z</time></trkpt><trkpt lat="40.10280465350482" lon="15.231788956862026"><ele>56.0</ele><time>2026-04-26T14:44:28Z</time></trkpt><trkpt lat="40.10276647423802" lon="15.23185952038801"><ele>56.00000000000001</ele><time>2026-04-26T14:44:31Z</time></trkpt><trkpt lat="40.10277442184039" lon="15.231730414215813"><ele>56.0</ele><time>2026-04-26T14:44:35Z</time></trkpt><trkpt lat="40.10285293768445" lon="15.231638042772833"><ele>56.0</ele><time>2026-04-26T14:44:37Z</time></trkpt><trkpt lat="40.10294181296654" lon="15.23154118336266"><ele>55.99999999999999</ele><time>2026-04-26T14:44:39Z</time></trkpt><trkpt lat="40.10303430536315" lon="15.231484583664079"><ele>55.99999999999999</ele><time>2026-04-26T14:44:41Z</time></trkpt><trkpt lat="40.10309469688181" lon="15.231422583470161"><ele>56.0</ele><time>2026-04-26T14:44:43Z</time></trkpt><trkpt lat="40.10315850521342" lon="15.231346769971513"><ele>56.0</ele><time>2026-04-26T14:44:45Z</time></trkpt><trkpt lat="40.103213964425926" lon="15.231268237596742"><ele>54.4</ele><time>2026-04-26T14:44:47Z</time></trkpt><trkpt lat="40.10322631120408" lon="15.23116534120666"><ele>52.8</ele><time>2026-04-26T14:44:49Z</time></trkpt><trkpt lat="40.103170437644906" lon="15.231054463944265"><ele>51.199999999999996</ele><time>2026-04-26T14:44:51Z</time></trkpt><trkpt lat="40.10311599921678" lon="15.230983483177095"><ele>49.599999999999994</ele><time>2026-04-26T14:44:53Z</time></trkpt><trkpt lat="40.10303820636489" lon="15.230890603803582"><ele>48.0</ele><time>2026-04-26T14:44:55Z</time></trkpt><trkpt lat="40.1029375159904" lon="15.230873788061025"><ele>48.0</ele><time>2026-04-26T14:44:57Z</time></trkpt><trkpt lat="40.10282860682839" lon="15.230961089692796"><ele>48.0</ele><time>2026-04-26T14:44:59Z</time></trkpt><trkpt lat="40.10275697786927" lon="15.231019016243481"><ele>48.0</ele><time>2026-04-26T14:45:00Z</time></trkpt><trkpt lat="40.10269216610134" lon="15.23104909363674"><ele>48.0</ele><time>2026-04-26T14:45:01Z</time></trkpt><trkpt lat="40.10262060602729" lon="15.231074800324775"><ele>48.0</ele><time>2026-04-26T14:45:02Z</time></trkpt><trkpt lat="40.10254808589233" lon="15.231105369517605"><ele>48.0</ele><time>2026-04-26T14:45:03Z</time></trkpt><trkpt lat="40.10247946899039" lon="15.231139442135337"><ele>46.857142857142854</ele><time>2026-04-26T14:45:04Z</time></trkpt><trkpt lat="40.10241196186012" lon="15.231179982875487"><ele>45.714285714285715</ele><time>2026-04-26T14:45:05Z</time></trkpt><trkpt lat="40.10235044723331" lon="15.231216141003534"><ele>44.57142857142857</ele><time>2026-04-26T14:45:06Z</time></trkpt><trkpt lat="40.10229027948144" lon="15.231256156980892"><ele>43.42857142857143</ele><time>2026-04-26T14:45:07Z</time></trkpt><trkpt lat="40.102219808494844" lon="15.2313065265599"><ele>42.285714285714285</ele><time>2026-04-26T14:45:08Z</time></trkpt><trkpt lat="40.102149623187366" lon="15.231351580840178"><ele>41.14285714285714</ele><time>2026-04-26T14:45:09Z</time></trkpt><trkpt lat="40.10207611182874" lon="15.231393396263828"><ele>40.0</ele><time>2026-04-26T14:45:10Z</time></trkpt><trkpt lat="40.1020031474451" lon="15.23143082708577"><ele>40.0</ele><time>2026-04-26T14:45:11Z</time></trkpt><trkpt lat="40.10192538012228" lon="15.231461339482134"><ele>40.0</ele><time>2026-04-26T14:45:12Z</time></trkpt><trkpt lat="40.10185283619554" lon="15.231488486904228"><ele>40.0</ele><time>2026-04-26T14:45:13Z</time></trkpt><trkpt lat="40.10178030397148" lon="15.231517196352641"><ele>40.0</ele><time>2026-04-26T14:45:14Z</time></trkpt><trkpt lat="40.101706921845725" lon="15.231542804950408"><ele>40.0</ele><time>2026-04-26T14:45:15Z</time></trkpt><trkpt lat="40.1016316100779" lon="15.231571680209258"><ele>40.0</ele><time>2026-04-26T14:45:16Z</time></trkpt><trkpt lat="40.101558521416386" lon="15.231600617761837"><ele>37.0</ele><time>2026-04-26T14:45:17Z</time></trkpt><trkpt lat="40.10148743108211" lon="15.23163058372645"><ele>34.0</ele><time>2026-04-26T14:45:18Z</time></trkpt><trkpt lat="40.10137372228627" lon="15.231703155394365"><ele>31.0</ele><time>2026-04-26T14:45:20Z</time></trkpt><trkpt lat="40.10131929356733" lon="15.23176843357483"><ele>28.0</ele><time>2026-04-26T14:45:21Z</time></trkpt><trkpt lat="40.10127051145127" lon="15.23184296855929"><ele>25.0</ele><time>2026-04-26T14:45:22Z</time></trkpt><trkpt lat="40.101225033466626" lon="15.23192091634348"><ele>22.0</ele><time>2026-04-26T14:45:23Z</time></trkpt><trkpt lat="40.1011849369044" lon="15.23200568254498"><ele>22.0</ele><time>2026-04-26T14:45:24Z</time></trkpt><trkpt lat="40.10115155968273" lon="15.232101801807415"><ele>22.0</ele><time>2026-04-26T14:45:25Z</time></trkpt><trkpt lat="40.101122650887866" lon="15.23220912803212"><ele>22.0</ele><time>2026-04-26T14:45:26Z</time></trkpt><trkpt lat="40.10109531647277" lon="15.232320706718173"><ele>22.0</ele><time>2026-04-26T14:45:27Z</time></trkpt><trkpt lat="40.10107022634726" lon="15.232435819645042"><ele>22.0</ele><time>2026-04-26T14:45:28Z</time></trkpt><trkpt lat="40.10103952697464" lon="15.232550577805343"><ele>22.0</ele><time>2026-04-26T14:45:29Z</time></trkpt><trkpt lat="40.10100119163995" lon="15.232657705467611"><ele>23.166666666666664</ele><time>2026-04-26T14:45:30Z</time></trkpt><trkpt lat="40.10096107238133" lon="15.232760840353697"><ele>24.333333333333332</ele><time>2026-04-26T14:45:31Z</time></trkpt><trkpt lat="40.10090665460806" lon="15.232838736551496"><ele>25.5</ele><time>2026-04-26T14:45:32Z</time></trkpt><trkpt lat="40.1008642743106" lon="15.232918933132035"><ele>26.666666666666664</ele><time>2026-04-26T14:45:33Z</time></trkpt><trkpt lat="40.10078981778523" lon="15.233024294939751"><ele>27.833333333333332</ele><time>2026-04-26T14:45:35Z</time></trkpt><trkpt lat="40.10069812421697" lon="15.233009191360457"><ele>29.0</ele><time>2026-04-26T14:45:37Z</time></trkpt><trkpt lat="40.10066711297065" lon="15.232875268344191"><ele>29.0</ele><time>2026-04-26T14:45:39Z</time></trkpt><trkpt lat="40.10071591681712" lon="15.232735171862224"><ele>29.0</ele><time>2026-04-26T14:45:41Z</time></trkpt><trkpt lat="40.10075637161683" lon="15.232649111535556"><ele>29.0</ele><time>2026-04-26T14:45:42Z</time></trkpt><trkpt lat="40.10079700884403" lon="15.232554512131275"><ele>29.0</ele><time>2026-04-26T14:45:43Z</time></trkpt><trkpt lat="40.10084633049796" lon="15.232454021402356"><ele>29.0</ele><time>2026-04-26T14:45:44Z</time></trkpt><trkpt lat="40.100896650940726" lon="15.23236678287091"><ele>27.833333333333332</ele><time>2026-04-26T14:45:45Z</time></trkpt><trkpt lat="40.10094267096682" lon="15.232285164217267"><ele>26.666666666666664</ele><time>2026-04-26T14:45:46Z</time></trkpt><trkpt lat="40.100976332023436" lon="15.2322055588194"><ele>25.5</ele><time>2026-04-26T14:45:47Z</time></trkpt><trkpt lat="40.100997150360655" lon="15.23211965218591"><ele>24.333333333333332</ele><time>2026-04-26T14:45:48Z</time></trkpt><trkpt lat="40.10100640991798" lon="15.232026634833682"><ele>23.166666666666664</ele><time>2026-04-26T14:45:49Z</time></trkpt><trkpt lat="40.10099934560062" lon="15.231920654134717"><ele>22.0</ele><time>2026-04-26T14:45:50Z</time></trkpt><trkpt lat="40.100978583002274" lon="15.231811958960819"><ele>22.0</ele><time>2026-04-26T14:45:51Z</time></trkpt><trkpt lat="40.100951041693854" lon="15.231708688710668"><ele>22.0</ele><time>2026-04-26T14:45:52Z</time></trkpt><trkpt lat="40.100933811634086" lon="15.231600554897144"><ele>22.0</ele><time>2026-04-26T14:45:53Z</time></trkpt><trkpt lat="40.100906680479795" lon="15.231496250932679"><ele>22.0</ele><time>2026-04-26T14:45:54Z</time></trkpt><trkpt lat="40.10088722567854" lon="15.231379613701831"><ele>22.0</ele><time>2026-04-26T14:45:55Z</time></trkpt><trkpt lat="40.10087531687467" lon="15.231264236464103"><ele>22.0</ele><time>2026-04-26T14:45:56Z</time></trkpt><trkpt lat="40.10087840198086" lon="15.231136517463412"><ele>21.400000000000002</ele><time>2026-04-26T14:45:57Z</time></trkpt><trkpt lat="40.10088319887276" lon="15.231005987239415"><ele>20.8</ele><time>2026-04-26T14:45:58Z</time></trkpt><trkpt lat="40.100875358394624" lon="15.230866427009074"><ele>20.2</ele><time>2026-04-26T14:45:59Z</time></trkpt><trkpt lat="40.100890260565286" lon="15.230735833849863"><ele>19.6</ele><time>2026-04-26T14:46:00Z</time></trkpt><trkpt lat="40.10089597054899" lon="15.230604775900389"><ele>19.0</ele><time>2026-04-26T14:46:01Z</time></trkpt><trkpt lat="40.10090671915945" lon="15.230470533802052"><ele>18.599999999999998</ele><time>2026-04-26T14:46:02Z</time></trkpt><trkpt lat="40.100928280029294" lon="15.23034244978133"><ele>18.2</ele><time>2026-04-26T14:46:03Z</time></trkpt><trkpt lat="40.100946324605424" lon="15.23021630912483"><ele>17.799999999999997</ele><time>2026-04-26T14:46:04Z</time></trkpt><trkpt lat="40.10095921176538" lon="15.230084008002343"><ele>17.4</ele><time>2026-04-26T14:46:05Z</time></trkpt><trkpt lat="40.10097650156791" lon="15.229960925049545"><ele>17.0</ele><time>2026-04-26T14:46:06Z</time></trkpt><trkpt lat="40.10099396897021" lon="15.229846446046029"><ele>15.4</ele><time>2026-04-26T14:46:07Z</time></trkpt><trkpt lat="40.10100687007677" lon="15.229739768796323"><ele>13.799999999999999</ele><time>2026-04-26T14:46:08Z</time></trkpt><trkpt lat="40.101018425933184" lon="15.229629114436614"><ele>12.2</ele><time>2026-04-26T14:46:09Z</time></trkpt><trkpt lat="40.10104349041533" lon="15.229513361281787"><ele>10.6</ele><time>2026-04-26T14:46:10Z</time></trkpt><trkpt lat="40.10108804308548" lon="15.229399962304448"><ele>9.0</ele><time>2026-04-26T14:46:11.001Z</time></trkpt><trkpt lat="40.10114046997039" lon="15.229300943954668"><ele>9.0</ele><time>2026-04-26T14:46:12.001Z</time></trkpt><trkpt lat="40.10119238915896" lon="15.229209333907221"><ele>9.0</ele><time>2026-04-26T14:46:13.001Z</time></trkpt><trkpt lat="40.101243380522874" lon="15.229122604306362"><ele>9.0</ele><time>2026-04-26T14:46:14.001Z</time></trkpt><trkpt lat="40.10130145345729" lon="15.229051178217759"><ele>9.0</ele><time>2026-04-26T14:46:15.001Z</time></trkpt><trkpt lat="40.10136788017865" lon="15.229004967212337"><ele>9.0</ele><time>2026-04-26T14:46:16.001Z</time></trkpt><trkpt lat="40.10144031698197" lon="15.228985961822977"><ele>9.0</ele><time>2026-04-26T14:46:17.001Z</time></trkpt><trkpt lat="40.101510019366195" lon="15.228984853179888"><ele>9.0</ele><time>2026-04-26T14:46:18.001Z</time></trkpt><trkpt lat="40.10158164213701" lon="15.228989257020169"><ele>9.0</ele><time>2026-04-26T14:46:19.001Z</time></trkpt><trkpt lat="40.10165691771138" lon="15.229002592297721"><ele>9.0</ele><time>2026-04-26T14:46:20.001Z</time></trkpt><trkpt lat="40.10173201000402" lon="15.229040487662072"><ele>9.0</ele><time>2026-04-26T14:46:21.001Z</time></trkpt><trkpt lat="40.10180504625774" lon="15.229093159128922"><ele>9.0</ele><time>2026-04-26T14:46:22.001Z</time></trkpt><trkpt lat="40.10187807231892" lon="15.229146489501854"><ele>9.0</ele><time>2026-04-26T14:46:23.001Z</time></trkpt><trkpt lat="40.1019468471974" lon="15.22918502225298"><ele>8.857142857142858</ele><time>2026-04-26T14:46:24Z</time></trkpt><trkpt lat="40.10201594706606" lon="15.229198743842968"><ele>8.714285714285715</ele><time>2026-04-26T14:46:25Z</time></trkpt><trkpt lat="40.10208211606523" lon="15.229186227424202"><ele>8.571428571428571</ele><time>2026-04-26T14:46:26Z</time></trkpt><trkpt lat="40.10214056890215" lon="15.22913515086958"><ele>8.428571428571429</ele><time>2026-04-26T14:46:27Z</time></trkpt><trkpt lat="40.102189418675195" lon="15.229069223780831"><ele>8.285714285714285</ele><time>2026-04-26T14:46:28Z</time></trkpt><trkpt lat="40.10222586707572" lon="15.228987220374956"><ele>8.142857142857142</ele><time>2026-04-26T14:46:29Z</time></trkpt><trkpt lat="40.10224769146685" lon="15.228904647260176"><ele>8.0</ele><time>2026-04-26T14:46:30Z</time></trkpt><trkpt lat="40.10225013291559" lon="15.228818762008128"><ele>8.0</ele><time>2026-04-26T14:46:31Z</time></trkpt><trkpt lat="40.10223724368263" lon="15.228732286844789"><ele>7.999999999999999</ele><time>2026-04-26T14:46:32Z</time></trkpt><trkpt lat="40.10220050670344" lon="15.22866100563727"><ele>8.0</ele><time>2026-04-26T14:46:33Z</time></trkpt><trkpt lat="40.10214612238019" lon="15.228608866738291"><ele>8.0</ele><time>2026-04-26T14:46:34Z</time></trkpt><trkpt lat="40.10208189590156" lon="15.22856354469745"><ele>7.999999999999999</ele><time>2026-04-26T14:46:35Z</time></trkpt><trkpt lat="40.10202358973621" lon="15.228517342462363"><ele>8.0</ele><time>2026-04-26T14:46:36Z</time></trkpt><trkpt lat="40.1019692765064" lon="15.228471981960837"><ele>8.0</ele><time>2026-04-26T14:46:37Z</time></trkpt><trkpt lat="40.10191562207122" lon="15.22842524898186"><ele>7.999999999999999</ele><time>2026-04-26T14:46:38Z</time></trkpt><trkpt lat="40.10183010307283" lon="15.228324423252987"><ele>8.0</ele><time>2026-04-26T14:46:40Z</time></trkpt><trkpt lat="40.101827173305" lon="15.228207246760055"><ele>8.0</ele><time>2026-04-26T14:46:42Z</time></trkpt><trkpt lat="40.10187118430394" lon="15.228144302386116"><ele>8.0</ele><time>2026-04-26T14:46:44Z</time></trkpt><trkpt lat="40.10193897462489" lon="15.22807807082731"><ele>7.999999999999999</ele><time>2026-04-26T14:46:46Z</time></trkpt><trkpt lat="40.10201832149417" lon="15.228019023588509"><ele>8.0</ele><time>2026-04-26T14:46:48Z</time></trkpt><trkpt lat="40.10210006304677" lon="15.227948544488443"><ele>8.600000000000001</ele><time>2026-04-26T14:46:50Z</time></trkpt><trkpt lat="40.102203773201595" lon="15.227848395583933"><ele>9.200000000000001</ele><time>2026-04-26T14:46:52Z</time></trkpt><trkpt lat="40.10225293067293" lon="15.227796519785038"><ele>9.8</ele><time>2026-04-26T14:46:53Z</time></trkpt><trkpt lat="40.10233279138337" lon="15.227705340835199"><ele>10.4</ele><time>2026-04-26T14:46:55Z</time></trkpt><trkpt lat="40.102400941016384" lon="15.227608606705969"><ele>11.0</ele><time>2026-04-26T14:46:57Z</time></trkpt><trkpt lat="40.102469815765" lon="15.227519995208654"><ele>11.0</ele><time>2026-04-26T14:46:59Z</time></trkpt><trkpt lat="40.10253832399465" lon="15.227429648220577"><ele>11.0</ele><time>2026-04-26T14:47:01Z</time></trkpt><trkpt lat="40.10261136537851" lon="15.227326855972246"><ele>11.0</ele><time>2026-04-26T14:47:03Z</time></trkpt><trkpt lat="40.102688966283026" lon="15.227225821447707"><ele>11.0</ele><time>2026-04-26T14:47:05Z</time></trkpt><trkpt lat="40.10276498983613" lon="15.227108378054933"><ele>11.0</ele><time>2026-04-26T14:47:07Z</time></trkpt><trkpt lat="40.10285027010083" lon="15.22699729813707"><ele>10.333333333333332</ele><time>2026-04-26T14:47:09Z</time></trkpt><trkpt lat="40.10294771068186" lon="15.226904582129096"><ele>9.666666666666666</ele><time>2026-04-26T14:47:11Z</time></trkpt><trkpt lat="40.103004863846095" lon="15.226855904890947"><ele>9.0</ele><time>2026-04-26T14:47:12Z</time></trkpt><trkpt lat="40.10306794369885" lon="15.226810147330113"><ele>8.333333333333334</ele><time>2026-04-26T14:47:13Z</time></trkpt><trkpt lat="40.10312840356852" lon="15.226767105532405"><ele>7.666666666666667</ele><time>2026-04-26T14:47:14Z</time></trkpt><trkpt lat="40.10323461123359" lon="15.226715352130332"><ele>7.0</ele><time>2026-04-26T14:47:16Z</time></trkpt><trkpt lat="40.1033146696898" lon="15.2266693726567"><ele>7.000000000000001</ele><time>2026-04-26T14:47:18Z</time></trkpt><trkpt lat="40.1033837473147" lon="15.226628588038873"><ele>7.0</ele><time>2026-04-26T14:47:20Z</time></trkpt><trkpt lat="40.10346526529673" lon="15.226585008345424"><ele>7.0</ele><time>2026-04-26T14:47:22Z</time></trkpt><trkpt lat="40.10354469243612" lon="15.226545753647065"><ele>7.0</ele><time>2026-04-26T14:47:24Z</time></trkpt><trkpt lat="40.10360981313423" lon="15.226503193004886"><ele>7.000000000000001</ele><time>2026-04-26T14:47:26Z</time></trkpt><trkpt lat="40.10369003653637" lon="15.226442835755416"><ele>7.0</ele><time>2026-04-26T14:47:28Z</time></trkpt><trkpt lat="40.10379557837294" lon="15.226386445425769"><ele>6.666666666666667</ele><time>2026-04-26T14:47:30Z</time></trkpt><trkpt lat="40.103862853738406" lon="15.226348756543876"><ele>6.333333333333334</ele><time>2026-04-26T14:47:31Z</time></trkpt><trkpt lat="40.10392223620228" lon="15.226315583989997"><ele>6.0</ele><time>2026-04-26T14:47:32Z</time></trkpt><trkpt lat="40.103984059273074" lon="15.226280186299924"><ele>5.666666666666667</ele><time>2026-04-26T14:47:33Z</time></trkpt><trkpt lat="40.104042281376955" lon="15.226247086297931"><ele>5.333333333333334</ele><time>2026-04-26T14:47:34Z</time></trkpt><trkpt lat="40.10414219852072" lon="15.22618840111986"><ele>5.0</ele><time>2026-04-26T14:47:36Z</time></trkpt><trkpt lat="40.10423281594456" lon="15.226128989702337"><ele>5.0</ele><time>2026-04-26T14:47:38Z</time></trkpt><trkpt lat="40.10433915365418" lon="15.226053307451494"><ele>5.0</ele><time>2026-04-26T14:47:40Z</time></trkpt><trkpt lat="40.10439468493703" lon="15.226003492417922"><ele>5.0</ele><time>2026-04-26T14:47:41Z</time></trkpt><trkpt lat="40.10445473124702" lon="15.225949715966385"><ele>5.0</ele><time>2026-04-26T14:47:42Z</time></trkpt><trkpt lat="40.10451537670028" lon="15.225880539717425"><ele>5.0</ele><time>2026-04-26T14:47:43Z</time></trkpt><trkpt lat="40.10458309664193" lon="15.225794434647556"><ele>5.0</ele><time>2026-04-26T14:47:44Z</time></trkpt><trkpt lat="40.104650199032605" lon="15.225714698935713"><ele>5.0</ele><time>2026-04-26T14:47:45Z</time></trkpt><trkpt lat="40.10471404587675" lon="15.225639639841894"><ele>5.0</ele><time>2026-04-26T14:47:46Z</time></trkpt><trkpt lat="40.104773612649055" lon="15.225568289088635"><ele>5.0</ele><time>2026-04-26T14:47:47Z</time></trkpt><trkpt lat="40.104830715123306" lon="15.225493008686238"><ele>5.0</ele><time>2026-04-26T14:47:48Z</time></trkpt><trkpt lat="40.10488844760008" lon="15.225416570686265"><ele>5.0</ele><time>2026-04-26T14:47:49Z</time></trkpt><trkpt lat="40.104951691197215" lon="15.225332199809582"><ele>5.0</ele><time>2026-04-26T14:47:50Z</time></trkpt><trkpt lat="40.105027818264354" lon="15.225242669014618"><ele>5.0</ele><time>2026-04-26T14:47:51Z</time></trkpt><trkpt lat="40.10509971465808" lon="15.22514874267046"><ele>5.0</ele><time>2026-04-26T14:47:52Z</time></trkpt><trkpt lat="40.10516580063481" lon="15.225062279047757"><ele>5.0</ele><time>2026-04-26T14:47:53Z</time></trkpt><trkpt lat="40.105225075378904" lon="15.224984031172669"><ele>5.0</ele><time>2026-04-26T14:47:54Z</time></trkpt><trkpt lat="40.105282193116395" lon="15.224916842727716"><ele>5.0</ele><time>2026-04-26T14:47:55Z</time></trkpt><trkpt lat="40.105335671984335" lon="15.224860504120434"><ele>5.0</ele><time>2026-04-26T14:47:56Z</time></trkpt><trkpt lat="40.105393400967074" lon="15.224804780234273"><ele>4.2</ele><time>2026-04-26T14:47:57Z</time></trkpt><trkpt lat="40.10545286999749" lon="15.22476301864717"><ele>3.4</ele><time>2026-04-26T14:47:58Z</time></trkpt><trkpt lat="40.10556115811895" lon="15.22469058553665"><ele>2.6</ele><time>2026-04-26T14:48:00Z</time></trkpt><trkpt lat="40.105659710544884" lon="15.224624730715602"><ele>1.8</ele><time>2026-04-26T14:48:02Z</time></trkpt><trkpt lat="40.10575996144022" lon="15.224571637175659"><ele>1.0</ele><time>2026-04-26T14:48:04Z</time></trkpt><trkpt lat="40.105871968510975" lon="15.224529166342554"><ele>0.9999999999999999</ele><time>2026-04-26T14:48:06Z</time></trkpt><trkpt lat="40.1059330128499" lon="15.224506564158602"><ele>1.0</ele><time>2026-04-26T14:48:07Z</time></trkpt><trkpt lat="40.106042346672844" lon="15.22447233757512"><ele>1.0</ele><time>2026-04-26T14:48:09Z</time></trkpt><trkpt lat="40.10616252788776" lon="15.2244316072466"><ele>1.0</ele><time>2026-04-26T14:48:11Z</time></trkpt><trkpt lat="40.10622301596453" lon="15.224408242323202"><ele>0.9999999999999999</ele><time>2026-04-26T14:48:12Z</time></trkpt><trkpt lat="40.10628552285164" lon="15.224380530789844"><ele>1.0</ele><time>2026-04-26T14:48:13Z</time></trkpt><trkpt lat="40.106350775260914" lon="15.224352409304958"><ele>0.9999999999999999</ele><time>2026-04-26T14:48:14Z</time></trkpt><trkpt lat="40.10641398091928" lon="15.22432655140796"><ele>1.0</ele><time>2026-04-26T14:48:15Z</time></trkpt><trkpt lat="40.106516711886044" lon="15.224281063082811"><ele>1.0</ele><time>2026-04-26T14:48:17Z</time></trkpt><trkpt lat="40.10659764405477" lon="15.224243554458939"><ele>1.0</ele><time>2026-04-26T14:48:19Z</time></trkpt><trkpt lat="40.1066801581903" lon="15.22418714814764"><ele>0.9999999999999999</ele><time>2026-04-26T14:48:22Z</time></trkpt><trkpt lat="40.10676078584517" lon="15.224146949839351"><ele>1.0</ele><time>2026-04-26T14:48:24Z</time></trkpt><trkpt lat="40.1068606945367" lon="15.224071960916824"><ele>0.8333333333333333</ele><time>2026-04-26T14:48:26.001Z</time></trkpt><trkpt lat="40.106921641940964" lon="15.224041415329792"><ele>0.6666666666666666</ele><time>2026-04-26T14:48:27.001Z</time></trkpt><trkpt lat="40.10698307393651" lon="15.224006277295233"><ele>0.5</ele><time>2026-04-26T14:48:28.001Z</time></trkpt><trkpt lat="40.10704132897748" lon="15.223964478435429"><ele>0.3333333333333333</ele><time>2026-04-26T14:48:29.001Z</time></trkpt><trkpt lat="40.107098067707575" lon="15.22392088186625"><ele>0.16666666666666666</ele><time>2026-04-26T14:48:30Z</time></trkpt><trkpt lat="40.107192818779566" lon="15.22385305302026"><ele>0.0</ele><time>2026-04-26T14:48:32Z</time></trkpt><trkpt lat="40.107278524184956" lon="15.22380575913439"><ele>0.0</ele><time>2026-04-26T14:48:34Z</time></trkpt><trkpt lat="40.1073721613397" lon="15.223746932843268"><ele>0.0</ele><time>2026-04-26T14:48:36Z</time></trkpt><trkpt lat="40.10747475143051" lon="15.223695275737427"><ele>0.0</ele><time>2026-04-26T14:48:38Z</time></trkpt><trkpt lat="40.107578045242306" lon="15.223637929172545"><ele>0.0</ele><time>2026-04-26T14:48:40Z</time></trkpt><trkpt lat="40.107691335852884" lon="15.223564149552288"><ele>0.2857142857142857</ele><time>2026-04-26T14:48:42Z</time></trkpt><trkpt lat="40.10775032998016" lon="15.223528473185452"><ele>0.5714285714285714</ele><time>2026-04-26T14:48:43Z</time></trkpt><trkpt lat="40.10781166383379" lon="15.223488399475928"><ele>0.8571428571428571</ele><time>2026-04-26T14:48:44Z</time></trkpt><trkpt lat="40.10787369765688" lon="15.223445277194065"><ele>1.1428571428571428</ele><time>2026-04-26T14:48:45Z</time></trkpt><trkpt lat="40.10793388709673" lon="15.223396853958622"><ele>1.4285714285714284</ele><time>2026-04-26T14:48:46Z</time></trkpt><trkpt lat="40.10799189657486" lon="15.223346191911457"><ele>1.7142857142857142</ele><time>2026-04-26T14:48:47Z</time></trkpt><trkpt lat="40.10804804102199" lon="15.223295478721024"><ele>2.0</ele><time>2026-04-26T14:48:48Z</time></trkpt><trkpt lat="40.108147236141086" lon="15.223211939180633"><ele>1.8333333333333333</ele><time>2026-04-26T14:48:50Z</time></trkpt><trkpt lat="40.10825367498724" lon="15.22312485431857"><ele>1.6666666666666665</ele><time>2026-04-26T14:48:52Z</time></trkpt><trkpt lat="40.10831188640111" lon="15.223081351307673"><ele>1.5</ele><time>2026-04-26T14:48:53Z</time></trkpt><trkpt lat="40.10837021034216" lon="15.223035203969832"><ele>1.3333333333333333</ele><time>2026-04-26T14:48:54Z</time></trkpt><trkpt lat="40.108428575376955" lon="15.222990281504336"><ele>1.1666666666666665</ele><time>2026-04-26T14:48:55Z</time></trkpt><trkpt lat="40.10853459798477" lon="15.222916196061501"><ele>1.0</ele><time>2026-04-26T14:48:57Z</time></trkpt><trkpt lat="40.108638559077384" lon="15.222831124326959"><ele>1.0</ele><time>2026-04-26T14:48:59Z</time></trkpt><trkpt lat="40.108688478956395" lon="15.222780566631663"><ele>0.9999999999999999</ele><time>2026-04-26T14:49:00Z</time></trkpt><trkpt lat="40.10874528112529" lon="15.222735257795508"><ele>1.0</ele><time>2026-04-26T14:49:01Z</time></trkpt><trkpt lat="40.10879948964165" lon="15.222680288746485"><ele>1.0</ele><time>2026-04-26T14:49:02Z</time></trkpt><trkpt lat="40.1088583847947" lon="15.222620974815369"><ele>0.9999999999999999</ele><time>2026-04-26T14:49:03Z</time></trkpt><trkpt lat="40.10892414647493" lon="15.22255449492382"><ele>1.0</ele><time>2026-04-26T14:49:04Z</time></trkpt><trkpt lat="40.108989774045995" lon="15.222482104884216"><ele>1.0</ele><time>2026-04-26T14:49:05Z</time></trkpt><trkpt lat="40.10906106802657" lon="15.22241200392867"><ele>0.9999999999999999</ele><time>2026-04-26T14:49:06Z</time></trkpt><trkpt lat="40.10912795511999" lon="15.222339244408417"><ele>1.0</ele><time>2026-04-26T14:49:07Z</time></trkpt><trkpt lat="40.109192230908015" lon="15.222273152880653"><ele>1.0</ele><time>2026-04-26T14:49:08Z</time></trkpt><trkpt lat="40.109249998849684" lon="15.222212312983476"><ele>1.0</ele><time>2026-04-26T14:49:09Z</time></trkpt><trkpt lat="40.1092993419115" lon="15.222152708763"><ele>0.9999999999999999</ele><time>2026-04-26T14:49:10Z</time></trkpt><trkpt lat="40.10937194280367" lon="15.222058670791338"><ele>1.0</ele><time>2026-04-26T14:49:12Z</time></trkpt><trkpt lat="40.109421443361455" lon="15.22199840328928"><ele>1.0</ele><time>2026-04-26T14:49:14Z</time></trkpt><trkpt lat="40.10949172371773" lon="15.22192374687366"><ele>1.0</ele><time>2026-04-26T14:49:17Z</time></trkpt><trkpt lat="40.10953142517126" lon="15.221852369224374"><ele>1.0</ele><time>2026-04-26T14:49:19Z</time></trkpt><trkpt lat="40.109440808894284" lon="15.221842300541645"><ele>1.0</ele><time>2026-04-26T14:49:25Z</time></trkpt><trkpt lat="40.10937377935454" lon="15.221956453165712"><ele>1.0</ele><time>2026-04-26T14:50:35Z</time></trkpt><trkpt lat="40.10929846412634" lon="15.22206639075233"><ele>1.0</ele><time>2026-04-26T14:50:36Z</time></trkpt><trkpt lat="40.10922612654204" lon="15.222164186123715"><ele>1.0</ele><time>2026-04-26T14:50:37Z</time></trkpt><trkpt lat="40.109128693257524" lon="15.222280757559712"><ele>1.0</ele><time>2026-04-26T14:50:38Z</time></trkpt><trkpt lat="40.109022438844164" lon="15.222410599406714"><ele>1.0</ele><time>2026-04-26T14:50:39Z</time></trkpt><trkpt lat="40.10892281884877" lon="15.222520851772975"><ele>1.0</ele><time>2026-04-26T14:50:40Z</time></trkpt><trkpt lat="40.10883293372224" lon="15.222611260415837"><ele>1.0</ele><time>2026-04-26T14:50:41Z</time></trkpt><trkpt lat="40.10875960408303" lon="15.222681101944234"><ele>1.0</ele><time>2026-04-26T14:50:42Z</time></trkpt><trkpt lat="40.10869541796338" lon="15.222741580885838"><ele>1.0</ele><time>2026-04-26T14:50:43Z</time></trkpt><trkpt lat="40.10863837364149" lon="15.222800268368477"><ele>1.0</ele><time>2026-04-26T14:50:44Z</time></trkpt><trkpt lat="40.10854953846698" lon="15.222878208927789"><ele>1.0</ele><time>2026-04-26T14:50:46Z</time></trkpt><trkpt lat="40.108487582239775" lon="15.222924283597393"><ele>1.0</ele><time>2026-04-26T14:50:48Z</time></trkpt><trkpt lat="40.10841000263063" lon="15.22299150438887"><ele>1.0</ele><time>2026-04-26T14:50:50Z</time></trkpt><trkpt lat="40.10832215033032" lon="15.223050251477"><ele>1.0</ele><time>2026-04-26T14:50:52Z</time></trkpt><trkpt lat="40.10824743324794" lon="15.223109476875374"><ele>1.0</ele><time>2026-04-26T14:50:54Z</time></trkpt><trkpt lat="40.10815726917004" lon="15.223180657358418"><ele>1.1666666666666665</ele><time>2026-04-26T14:50:56Z</time></trkpt><trkpt lat="40.108059738050336" lon="15.223258997053355"><ele>1.3333333333333333</ele><time>2026-04-26T14:50:58Z</time></trkpt><trkpt lat="40.10795424965285" lon="15.223351553204267"><ele>1.5</ele><time>2026-04-26T14:51:00Z</time></trkpt><trkpt lat="40.10789746877064" lon="15.223390098181934"><ele>1.6666666666666665</ele><time>2026-04-26T14:51:01Z</time></trkpt><trkpt lat="40.107840818414346" lon="15.223437129150602"><ele>1.8333333333333333</ele><time>2026-04-26T14:51:02Z</time></trkpt><trkpt lat="40.10778070985949" lon="15.22349183180856"><ele>2.0</ele><time>2026-04-26T14:51:03Z</time></trkpt><trkpt lat="40.10771634048876" lon="15.223534065351247"><ele>2.0</ele><time>2026-04-26T14:51:04Z</time></trkpt><trkpt lat="40.107651780675226" lon="15.223569674980732"><ele>1.9999999999999998</ele><time>2026-04-26T14:51:05Z</time></trkpt><trkpt lat="40.10758703920331" lon="15.223605789600176"><ele>2.0</ele><time>2026-04-26T14:51:06Z</time></trkpt><trkpt lat="40.10751110244506" lon="15.223652295619098"><ele>2.0</ele><time>2026-04-26T14:51:07Z</time></trkpt><trkpt lat="40.10743459101642" lon="15.223677396315338"><ele>1.9999999999999998</ele><time>2026-04-26T14:51:08Z</time></trkpt><trkpt lat="40.10737418776892" lon="15.223711157732644"><ele>2.0</ele><time>2026-04-26T14:51:09Z</time></trkpt><trkpt lat="40.10730960900439" lon="15.223748356748391"><ele>2.0</ele><time>2026-04-26T14:51:10Z</time></trkpt><trkpt lat="40.10724548449464" lon="15.223785955041878"><ele>1.6</ele><time>2026-04-26T14:51:11Z</time></trkpt><trkpt lat="40.10718211100109" lon="15.223823113024027"><ele>1.2000000000000002</ele><time>2026-04-26T14:51:12Z</time></trkpt><trkpt lat="40.10712182903047" lon="15.223858830974331"><ele>0.8</ele><time>2026-04-26T14:51:13Z</time></trkpt><trkpt lat="40.10701654383824" lon="15.223925340749165"><ele>0.4</ele><time>2026-04-26T14:51:15Z</time></trkpt><trkpt lat="40.10690943385711" lon="15.22399915233259"><ele>0.0</ele><time>2026-04-26T14:51:17Z</time></trkpt><trkpt lat="40.10680969549854" lon="15.224067105235335"><ele>0.16666666666666666</ele><time>2026-04-26T14:51:19Z</time></trkpt><trkpt lat="40.10671340950283" lon="15.224127629442574"><ele>0.3333333333333333</ele><time>2026-04-26T14:51:21Z</time></trkpt><trkpt lat="40.106603260001826" lon="15.224192139957237"><ele>0.5</ele><time>2026-04-26T14:51:23Z</time></trkpt><trkpt lat="40.106542778367164" lon="15.224226635640049"><ele>0.6666666666666666</ele><time>2026-04-26T14:51:24Z</time></trkpt><trkpt lat="40.10648457702961" lon="15.224276325752903"><ele>0.8333333333333333</ele><time>2026-04-26T14:51:25Z</time></trkpt><trkpt lat="40.106424797473686" lon="15.224303658168349"><ele>1.0</ele><time>2026-04-26T14:51:26Z</time></trkpt><trkpt lat="40.10632399687643" lon="15.224334052084405"><ele>0.9999999999999999</ele><time>2026-04-26T14:51:28Z</time></trkpt><trkpt lat="40.10623210371439" lon="15.224357136812522"><ele>1.0</ele><time>2026-04-26T14:51:30Z</time></trkpt><trkpt lat="40.106153805242" lon="15.22438765303397"><ele>1.0</ele><time>2026-04-26T14:51:33Z</time></trkpt><trkpt lat="40.10609175428331" lon="15.224412294195659"><ele>1.0</ele><time>2026-04-26T14:51:37Z</time></trkpt><trkpt lat="40.10603661449419" lon="15.224452939928502"><ele>0.9999999999999999</ele><time>2026-04-26T14:51:42Z</time></trkpt><trkpt lat="40.10610527792452" lon="15.224384239592796"><ele>1.0</ele><time>2026-04-26T14:58:05Z</time></trkpt><trkpt lat="40.106051917896785" lon="15.224434082137194"><ele>1.0</ele><time>2026-04-26T15:05:13Z</time></trkpt></trkseg></trk></gpx>